首页
METAR-TAF:

METAR-TAF

机场 :

臺灣桃園國際機場

臺北, 台湾

纬度: 25-05N, 经度: 121-13E, 海拔: 33米

当前天气观测

该预报发布于47分钟前的18:30 UTC
风速6节,风向北转东北
温度 24°C
湿度 94%
气压 1015 hPa
能见度10公里或以上
散云层高于1000英尺
多云层高于1500英尺
多云层高于3500英尺

METAR: RCTP 221830Z 03006KT 9999 SCT010 BKN015 BKN035 24/23 Q1015 NOSIG RMK A2999

时间: 03:17 (19:17 UTC)

预报

该预报发布于2小时和17分钟前的17:00 UTC
预报有效从22日的 18点(UTC)到 23日的 24点(UTC)
风速5节,风向
能见度10公里或以上
少量云层高于1200英尺
多云层高于2500英尺
短暂存在
从 22日的 18点(UTC)到 22日的 22点(UTC)
风速5节,风向
散云层高于600英尺
多云层高于900英尺
多云层高于4000英尺
短暂存在
从 22日的 22点(UTC)到 23日的 02点(UTC)
风速10节,风向北转东北
能見度: 5000
散云层高于500英尺
多云层高于900英尺
多云层高于3200英尺
成为
从 23日的 01点(UTC)到 23日的 03点(UTC)
风速15节,风向北转东北
少量云层高于1000英尺
多云层高于2500英尺
短暂存在
从 23日的 04点(UTC)到 23日的 10点(UTC)
风速20节,风向东北
散云层高于600英尺
多云层高于1500英尺
多云层高于4000英尺
短暂存在
从 23日的 18点(UTC)到 23日的 24点(UTC)
风速8节,风向
散云层高于1000英尺
多云层高于1800英尺
多云层高于6000英尺

TAF: RCTP 221700Z 2218/2324 36005KT 9999 FEW012 BKN025 TEMPO 2218/2222 17005KT SCT006 BKN009 BKN040 TEMPO 2222/2302 03010KT 5000 RA SCT005 BKN009 BKN032 BECMG 2301/2303 03015KT FEW010 BKN025 TEMPO 2304/2310 05020KT SCT006 BKN015 BKN040 TEMPO 2318/2324 09008KT SCT010 BKN018 BKN060

超过4000个机场的气象观测和天气预报(METAR&TAF报告)。

可查询的气象台以黄色和红色小点在地图上表示。

将鼠标移到小点上方,可查看气象台名称。

然后点击查看天气观测和预报。

如需切换地图:点击带黑十字的绿色按钮放大地图;点击带横线的绿色按钮缩小地图;或者点击绿色箭头查看邻近地区的地图。


METAR-TAF: